Time,TemperatureF,DewpointF,PressureIn,WindDirection,WindDirectionDegrees,WindSpeedMPH,WindSpeedGustMPH,Humidity,HourlyPrecipIn,Conditions,Clouds,dailyrainin,SoftwareType,DateUTC
2013-08-22 00:13:00,79.0,70.0,29.86,SSE,159,5.0,10.0,75,0.00,,,0.00,,2013-08-22 05:13:00,
2013-08-22 00:22:00,79.0,70.0,29.87,SSE,161,3.0,12.0,75,0.00,,,0.00,,2013-08-22 05:22:00,
2013-08-22 00:43:00,79.0,70.0,29.89,South,173,2.0,9.0,75,0.00,,,0.00,,2013-08-22 05:43:00,
2013-08-22 00:53:00,79.0,70.0,29.89,South,173,2.0,9.0,75,0.00,,,0.00,,2013-08-22 05:53:00,
2013-08-22 01:12:00,78.0,70.0,29.91,South,185,3.0,8.0,77,0.00,,,0.00,,2013-08-22 06:12:00,
2013-08-22 01:22:00,78.0,70.0,29.91,South,182,5.0,12.0,76,0.00,,,0.00,,2013-08-22 06:22:00,
2013-08-22 01:42:00,78.0,70.0,29.91,South,190,2.0,9.0,76,0.00,,,0.00,,2013-08-22 06:42:00,
2013-08-22 01:52:00,77.0,70.0,29.96,WNW,288,12.0,27.0,79,0.00,,,0.00,,2013-08-22 06:52:00,
2013-08-22 02:02:00,77.0,70.0,29.96,WNW,288,12.0,27.0,79,0.00,,,0.00,,2013-08-22 07:02:00,
2013-08-22 02:11:00,77.0,70.0,29.96,WNW,288,12.0,27.0,79,0.00,,,0.00,,2013-08-22 07:11:00,
2013-08-22 02:22:00,73.0,65.0,29.97,North,355,7.0,22.0,77,0.00,,,0.00,,2013-08-22 07:22:00,
2013-08-22 02:42:00,71.0,65.0,29.97,NW,319,5.0,16.0,82,0.00,,,0.00,,2013-08-22 07:42:00,
2013-08-22 02:52:00,71.0,66.0,29.95,NNE,16,2.0,10.0,83,0.00,,,0.00,,2013-08-22 07:52:00,
2013-08-22 03:22:00,70.0,66.0,29.96,North,11,0.0,0.0,86,0.00,,,0.00,,2013-08-22 08:22:00,
2013-08-22 03:43:00,69.0,65.0,29.96,NNE,33,0.0,0.0,87,0.00,,,0.00,,2013-08-22 08:43:00,
2013-08-22 03:53:00,69.0,65.0,29.98,NNE,33,0.0,0.0,87,0.00,,,0.00,,2013-08-22 08:53:00,
2013-08-22 04:11:00,69.0,65.0,29.98,NNE,33,0.0,0.0,88,0.00,,,0.00,,2013-08-22 09:11:00,
2013-08-22 04:22:00,69.0,66.0,29.98,NNE,33,0.0,0.0,89,0.00,,,0.00,,2013-08-22 09:22:00,
2013-08-22 04:43:00,69.0,66.0,29.97,NNE,33,0.0,0.0,89,0.00,,,0.00,,2013-08-22 09:43:00,
2013-08-22 04:53:00,69.0,66.0,29.96,WSW,258,2.0,6.0,89,0.00,,,0.00,,2013-08-22 09:53:00,
2013-08-22 05:12:00,69.0,66.0,29.95,West,281,0.0,0.0,89,0.00,,,0.00,,2013-08-22 10:12:00,
2013-08-22 05:23:00,69.0,66.0,29.96,West,266,0.0,0.0,90,0.00,,,0.00,,2013-08-22 10:23:00,
2013-08-22 05:42:00,69.0,66.0,29.97,SW,219,0.0,0.0,90,0.00,,,0.00,,2013-08-22 10:42:00,
2013-08-22 07:42:00,67.0,65.0,29.94,East,88,2.0,8.0,94,0.03,,,0.03,,2013-08-22 12:42:00,
2013-08-22 07:52:00,67.0,66.0,29.94,ESE,105,4.0,7.0,95,0.01,,,0.03,,2013-08-22 12:52:00,
2013-08-22 08:12:00,67.0,66.0,29.94,ESE,112,0.0,7.0,95,0.01,,,0.03,,2013-08-22 13:12:00,
2013-08-22 08:22:00,67.0,65.0,29.94,SE,129,0.0,9.0,94,0.00,,,0.03,,2013-08-22 13:22:00,
2013-08-22 08:52:00,67.0,65.0,29.95,SE,127,2.0,4.0,94,0.00,,,0.03,,2013-08-22 13:52:00,
2013-08-22 09:11:00,68.0,67.0,29.96,SE,127,3.0,6.0,95,0.00,,,0.03,,2013-08-22 14:11:00,
2013-08-22 09:22:00,68.0,66.0,29.95,SE,127,2.0,6.0,94,0.00,,,0.03,,2013-08-22 14:22:00,
2013-08-22 09:52:00,68.0,67.0,29.96,ESE,123,3.0,5.0,95,0.00,,,0.03,,2013-08-22 14:52:00,
2013-08-22 10:12:00,69.0,68.0,29.96,ESE,123,2.0,5.0,95,0.00,,,0.03,,2013-08-22 15:12:00,
2013-08-22 10:22:00,69.0,67.0,29.97,ESE,121,1.0,4.0,94,0.00,,,0.03,,2013-08-22 15:22:00,
2013-08-22 10:43:00,70.0,68.0,29.97,ESE,121,3.0,7.0,94,0.00,,,0.03,,2013-08-22 15:43:00,
2013-08-22 10:54:00,70.0,68.0,29.98,East,100,3.0,8.0,92,0.00,,,0.03,,2013-08-22 15:54:00,
2013-08-22 11:14:00,71.0,68.0,29.98,East,100,0.0,6.0,91,0.00,,,0.03,,2013-08-22 16:14:00,
2013-08-22 11:24:00,72.0,68.0,30.00,East,99,3.0,7.0,88,0.00,,,0.03,,2013-08-22 16:24:00,
2013-08-22 11:43:00,72.0,68.0,30.01,East,92,0.0,7.0,88,0.00,,,0.03,,2013-08-22 16:43:00,
2013-08-22 11:53:00,73.0,68.0,30.02,SSE,157,1.0,7.0,85,0.00,,,0.03,,2013-08-22 16:53:00,
2013-08-22 12:12:00,74.0,68.0,30.01,ESE,116,2.0,5.0,83,0.00,,,0.03,,2013-08-22 17:12:00,
2013-08-22 12:24:00,75.0,69.0,30.01,ESE,106,4.0,7.0,82,0.00,,,0.03,,2013-08-22 17:24:00,
2013-08-22 12:43:00,77.0,69.0,30.01,South,172,0.0,6.0,77,0.00,,,0.03,,2013-08-22 17:43:00,
2013-08-22 12:53:00,78.0,69.0,30.01,East,82,0.0,6.0,74,0.00,,,0.03,,2013-08-22 17:53:00,
2013-08-22 13:12:00,78.0,68.0,30.01,East,88,0.0,7.0,72,0.00,,,0.03,,2013-08-22 18:12:00,
2013-08-22 13:22:00,79.0,68.0,30.00,ESE,117,1.0,4.0,70,0.00,,,0.03,,2013-08-22 18:22:00,
2013-08-22 13:43:00,79.0,69.0,29.99,SE,130,1.0,4.0,71,0.00,,,0.03,,2013-08-22 18:43:00,
2013-08-22 13:52:00,78.0,68.0,29.99,ESE,121,3.0,8.0,71,0.00,,,0.03,,2013-08-22 18:52:00,
2013-08-22 14:11:00,78.0,69.0,29.99,ESE,110,2.0,5.0,73,0.00,,,0.03,,2013-08-22 19:11:00,
2013-08-22 14:22:00,78.0,69.0,29.99,East,98,3.0,9.0,73,0.00,,,0.03,,2013-08-22 19:22:00,
2013-08-22 14:42:00,79.0,69.0,29.99,East,93,3.0,8.0,71,0.00,,,0.03,,2013-08-22 19:42:00,
2013-08-22 14:53:00,79.0,70.0,29.98,ESE,118,1.0,9.0,74,0.00,,,0.03,,2013-08-22 19:53:00,
2013-08-22 15:12:00,80.0,70.0,29.98,East,96,2.0,10.0,72,0.00,,,0.03,,2013-08-22 20:12:00,
2013-08-22 15:23:00,81.0,71.0,29.98,ENE,77,3.0,7.0,71,0.00,,,0.03,,2013-08-22 20:23:00,
2013-08-22 15:42:00,80.0,69.0,29.98,East,97,3.0,8.0,70,0.00,,,0.03,,2013-08-22 20:42:00,
2013-08-22 15:52:00,79.0,70.0,29.98,East,93,0.0,7.0,74,0.00,,,0.03,,2013-08-22 20:52:00,
2013-08-22 16:13:00,80.0,69.0,29.98,ESE,114,2.0,7.0,70,0.00,,,0.03,,2013-08-22 21:13:00,
2013-08-22 16:22:00,80.0,71.0,29.97,ESE,114,2.0,4.0,73,0.00,,,0.03,,2013-08-22 21:22:00,
2013-08-22 16:44:00,79.0,69.0,29.96,East,100,4.0,8.0,72,0.00,,,0.03,,2013-08-22 21:44:00,
2013-08-22 16:54:00,79.0,69.0,29.96,ESE,111,2.0,7.0,72,0.00,,,0.03,,2013-08-22 21:54:00,
2013-08-22 17:13:00,79.0,70.0,29.96,East,99,0.0,6.0,74,0.00,,,0.03,,2013-08-22 22:13:00,
2013-08-22 17:24:00,79.0,70.0,29.96,East,86,1.0,6.0,75,0.00,,,0.03,,2013-08-22 22:24:00,
2013-08-22 17:42:00,79.0,70.0,29.96,East,101,3.0,8.0,73,0.00,,,0.03,,2013-08-22 22:42:00,
2013-08-22 17:53:00,79.0,70.0,29.96,ENE,78,3.0,8.0,73,0.00,,,0.03,,2013-08-22 22:53:00,
2013-08-22 18:11:00,79.0,70.0,29.96,East,96,3.0,7.0,74,0.00,,,0.03,,2013-08-22 23:11:00,
2013-08-22 18:22:00,79.0,70.0,29.95,East,85,1.0,6.0,75,0.00,,,0.03,,2013-08-22 23:22:00,
2013-08-22 18:42:00,79.0,71.0,29.95,East,85,0.0,5.0,76,0.00,,,0.03,,2013-08-22 23:42:00,
2013-08-22 18:52:00,78.0,70.0,29.95,East,94,2.0,8.0,76,0.00,,,0.03,,2013-08-22 23:52:00,
2013-08-22 19:12:00,78.0,71.0,29.95,East,89,4.0,9.0,79,0.00,,,0.03,,2013-08-23 00:12:00,
2013-08-22 19:23:00,77.0,70.0,29.95,ENE,67,5.0,10.0,80,0.00,,,0.03,,2013-08-23 00:23:00,
2013-08-22 19:42:00,77.0,71.0,29.96,East,92,4.0,8.0,82,0.00,,,0.03,,2013-08-23 00:42:00,
2013-08-22 19:52:00,76.0,70.0,29.96,East,92,2.0,8.0,82,0.00,,,0.03,,2013-08-23 00:52:00,
2013-08-22 20:11:00,76.0,71.0,29.96,East,89,0.0,5.0,84,0.00,,,0.03,,2013-08-23 01:11:00,
2013-08-22 20:21:00,76.0,71.0,29.96,East,89,0.0,0.0,85,0.00,,,0.03,,2013-08-23 01:21:00,
2013-08-22 20:42:00,75.0,71.0,29.96,East,89,0.0,0.0,86,0.00,,,0.03,,2013-08-23 01:42:00,
2013-08-22 20:52:00,74.0,69.0,29.96,East,89,1.0,5.0,85,0.00,,,0.03,,2013-08-23 01:52:00,
2013-08-22 21:11:00,74.0,70.0,29.96,East,89,0.0,3.0,86,0.00,,,0.03,,2013-08-23 02:11:00,
2013-08-22 21:23:00,73.0,69.0,29.96,East,89,0.0,0.0,87,0.00,,,0.03,,2013-08-23 02:23:00,
2013-08-22 21:43:00,73.0,69.0,29.96,East,89,0.0,0.0,87,0.00,,,0.03,,2013-08-23 02:43:00,
2013-08-22 21:52:00,73.0,69.0,29.96,East,89,0.0,0.0,88,0.00,,,0.03,,2013-08-23 02:52:00,
2013-08-22 22:12:00,73.0,69.0,29.97,East,89,0.0,0.0,88,0.00,,,0.03,,2013-08-23 03:12:00,
2013-08-22 22:22:00,73.0,69.0,29.97,East,89,0.0,0.0,88,0.00,,,0.03,,2013-08-23 03:22:00,
2013-08-22 22:55:00,72.0,69.0,29.98,East,89,0.0,0.0,89,0.00,,,0.03,,2013-08-23 03:55:00,
2013-08-22 23:13:00,72.0,69.0,29.98,East,89,0.0,0.0,90,0.00,,,0.03,,2013-08-23 04:13:00,
2013-08-22 23:24:00,71.0,68.0,29.98,East,89,0.0,0.0,91,0.00,,,0.03,,2013-08-23 04:24:00,
2013-08-22 23:43:00,71.0,68.0,29.99,East,89,0.0,0.0,91,0.00,,,0.03,,2013-08-23 04:43:00,
2013-08-22 23:54:00,71.0,68.0,29.99,East,89,0.0,2.0,90,0.00,,,0.03,,2013-08-23 04:54:00,